sensor_id;sensor_type;location;lat;lon;timestamp;P1;durP1;ratioP1;P2;durP2;ratioP2
45236;SDS011;30973;51.442;3.580;2023-04-24T00:00:46;10.77;;;3.28;;
45236;SDS011;30973;51.442;3.580;2023-04-24T00:03:13;11.30;;;3.50;;
45236;SDS011;30973;51.442;3.580;2023-04-24T00:05:40;10.77;;;3.25;;
45236;SDS011;30973;51.442;3.580;2023-04-24T00:08:07;11.70;;;2.95;;
45236;SDS011;30973;51.442;3.580;2023-04-24T00:10:34;6.00;;;2.50;;
45236;SDS011;30973;51.442;3.580;2023-04-24T00:13:01;7.22;;;2.40;;
45236;SDS011;30973;51.442;3.580;2023-04-24T00:15:28;8.38;;;2.33;;
45236;SDS011;30973;51.442;3.580;2023-04-24T00:17:54;10.40;;;2.28;;
45236;SDS011;30973;51.442;3.580;2023-04-24T00:20:21;15.30;;;2.20;;
45236;SDS011;30973;51.442;3.580;2023-04-24T00:22:48;8.80;;;2.05;;
45236;SDS011;30973;51.442;3.580;2023-04-24T00:25:15;6.40;;;2.95;;
45236;SDS011;30973;51.442;3.580;2023-04-24T00:27:42;10.60;;;2.20;;
45236;SDS011;30973;51.442;3.580;2023-04-24T00:30:09;7.70;;;2.20;;
45236;SDS011;30973;51.442;3.580;2023-04-24T00:32:35;8.85;;;1.48;;
45236;SDS011;30973;51.442;3.580;2023-04-24T00:35:02;8.18;;;1.50;;
45236;SDS011;30973;51.442;3.580;2023-04-24T00:37:28;6.93;;;1.58;;
45236;SDS011;30973;51.442;3.580;2023-04-24T00:39:55;6.30;;;1.80;;
45236;SDS011;30973;51.442;3.580;2023-04-24T00:42:22;6.13;;;1.42;;
45236;SDS011;30973;51.442;3.580;2023-04-24T00:44:48;8.45;;;2.03;;
45236;SDS011;30973;51.442;3.580;2023-04-24T00:47:15;6.35;;;2.03;;
45236;SDS011;30973;51.442;3.580;2023-04-24T00:49:42;5.85;;;1.73;;
45236;SDS011;30973;51.442;3.580;2023-04-24T00:52:10;5.72;;;1.52;;
45236;SDS011;30973;51.442;3.580;2023-04-24T00:54:37;6.18;;;1.50;;
45236;SDS011;30973;51.442;3.580;2023-04-24T00:57:03;8.82;;;1.95;;
45236;SDS011;30973;51.442;3.580;2023-04-24T00:59:30;3.13;;;1.40;;
45236;SDS011;30973;51.442;3.580;2023-04-24T01:01:57;4.57;;;1.50;;
45236;SDS011;30973;51.442;3.580;2023-04-24T01:04:23;5.05;;;1.92;;
45236;SDS011;30973;51.442;3.580;2023-04-24T01:06:51;3.72;;;1.50;;
45236;SDS011;30973;51.442;3.580;2023-04-24T01:09:18;5.38;;;1.70;;
45236;SDS011;30973;51.442;3.580;2023-04-24T01:11:46;7.90;;;2.13;;
45236;SDS011;30973;51.442;3.580;2023-04-24T01:14:13;7.65;;;2.28;;
45236;SDS011;30973;51.442;3.580;2023-04-24T01:16:40;6.95;;;2.47;;
45236;SDS011;30973;51.442;3.580;2023-04-24T01:19:07;6.45;;;2.55;;
45236;SDS011;30973;51.442;3.580;2023-04-24T01:21:36;10.88;;;3.78;;
45236;SDS011;30973;51.442;3.580;2023-04-24T01:24:04;11.88;;;3.63;;
45236;SDS011;30973;51.442;3.580;2023-04-24T01:26:31;11.05;;;2.78;;
45236;SDS011;30973;51.442;3.580;2023-04-24T01:28:58;7.53;;;2.10;;
45236;SDS011;30973;51.442;3.580;2023-04-24T01:31:24;10.88;;;2.42;;
45236;SDS011;30973;51.442;3.580;2023-04-24T01:33:51;8.98;;;2.65;;
45236;SDS011;30973;51.442;3.580;2023-04-24T01:36:19;9.05;;;2.60;;
45236;SDS011;30973;51.442;3.580;2023-04-24T01:38:46;8.43;;;2.53;;
45236;SDS011;30973;51.442;3.580;2023-04-24T01:41:12;13.05;;;2.83;;
45236;SDS011;30973;51.442;3.580;2023-04-24T01:43:39;7.68;;;2.67;;
45236;SDS011;30973;51.442;3.580;2023-04-24T01:46:06;12.95;;;2.75;;
45236;SDS011;30973;51.442;3.580;2023-04-24T01:48:35;6.53;;;2.40;;
45236;SDS011;30973;51.442;3.580;2023-04-24T01:51:01;5.18;;;2.65;;
45236;SDS011;30973;51.442;3.580;2023-04-24T01:53:29;9.00;;;2.97;;
45236;SDS011;30973;51.442;3.580;2023-04-24T01:55:55;10.23;;;2.75;;
45236;SDS011;30973;51.442;3.580;2023-04-24T01:58:23;10.00;;;3.17;;
45236;SDS011;30973;51.442;3.580;2023-04-24T02:00:51;8.45;;;2.42;;
45236;SDS011;30973;51.442;3.580;2023-04-24T02:03:17;8.63;;;3.05;;
45236;SDS011;30973;51.442;3.580;2023-04-24T02:05:44;15.77;;;2.95;;
45236;SDS011;30973;51.442;3.580;2023-04-24T02:08:11;10.85;;;3.10;;
45236;SDS011;30973;51.442;3.580;2023-04-24T02:10:38;9.00;;;2.72;;
45236;SDS011;30973;51.442;3.580;2023-04-24T02:13:04;14.48;;;4.05;;
45236;SDS011;30973;51.442;3.580;2023-04-24T02:15:31;7.78;;;3.00;;
45236;SDS011;30973;51.442;3.580;2023-04-24T02:17:58;7.97;;;3.20;;
45236;SDS011;30973;51.442;3.580;2023-04-24T02:20:24;10.88;;;3.40;;
45236;SDS011;30973;51.442;3.580;2023-04-24T02:22:54;8.25;;;3.38;;
45236;SDS011;30973;51.442;3.580;2023-04-24T02:25:22;13.85;;;3.78;;
45236;SDS011;30973;51.442;3.580;2023-04-24T02:27:49;10.27;;;2.97;;
45236;SDS011;30973;51.442;3.580;2023-04-24T02:30:15;10.02;;;4.45;;
45236;SDS011;30973;51.442;3.580;2023-04-24T02:32:42;13.60;;;3.72;;
45236;SDS011;30973;51.442;3.580;2023-04-24T02:35:09;9.98;;;3.60;;
45236;SDS011;30973;51.442;3.580;2023-04-24T02:37:36;10.13;;;3.25;;
45236;SDS011;30973;51.442;3.580;2023-04-24T02:40:03;7.32;;;3.40;;
45236;SDS011;30973;51.442;3.580;2023-04-24T02:42:30;12.63;;;3.78;;
45236;SDS011;30973;51.442;3.580;2023-04-24T02:44:56;12.32;;;4.38;;
45236;SDS011;30973;51.442;3.580;2023-04-24T02:47:23;9.20;;;4.03;;
45236;SDS011;30973;51.442;3.580;2023-04-24T02:49:50;15.43;;;4.65;;
45236;SDS011;30973;51.442;3.580;2023-04-24T02:52:17;13.60;;;4.25;;
45236;SDS011;30973;51.442;3.580;2023-04-24T02:54:43;11.65;;;4.22;;
45236;SDS011;30973;51.442;3.580;2023-04-24T02:57:10;7.07;;;3.78;;
45236;SDS011;30973;51.442;3.580;2023-04-24T02:59:40;9.15;;;3.70;;
45236;SDS011;30973;51.442;3.580;2023-04-24T03:02:07;9.63;;;4.13;;
45236;SDS011;30973;51.442;3.580;2023-04-24T03:04:33;12.15;;;4.18;;
45236;SDS011;30973;51.442;3.580;2023-04-24T03:07:00;13.07;;;3.90;;
45236;SDS011;30973;51.442;3.580;2023-04-24T03:09:27;9.90;;;4.22;;
45236;SDS011;30973;51.442;3.580;2023-04-24T03:11:54;13.40;;;4.97;;
45236;SDS011;30973;51.442;3.580;2023-04-24T03:14:23;12.20;;;4.57;;
45236;SDS011;30973;51.442;3.580;2023-04-24T03:16:50;16.52;;;4.97;;
45236;SDS011;30973;51.442;3.580;2023-04-24T03:19:17;13.20;;;4.70;;
45236;SDS011;30973;51.442;3.580;2023-04-24T03:21:55;12.55;;;4.97;;
45236;SDS011;30973;51.442;3.580;2023-04-24T03:24:22;11.52;;;4.18;;
45236;SDS011;30973;51.442;3.580;2023-04-24T03:26:49;12.77;;;5.72;;
45236;SDS011;30973;51.442;3.580;2023-04-24T03:29:30;14.57;;;4.95;;
45236;SDS011;30973;51.442;3.580;2023-04-24T03:31:57;11.35;;;4.90;;
45236;SDS011;30973;51.442;3.580;2023-04-24T03:34:27;15.25;;;6.25;;
45236;SDS011;30973;51.442;3.580;2023-04-24T03:36:55;12.48;;;5.75;;
45236;SDS011;30973;51.442;3.580;2023-04-24T03:39:23;13.07;;;5.47;;
45236;SDS011;30973;51.442;3.580;2023-04-24T03:41:54;15.73;;;6.22;;
45236;SDS011;30973;51.442;3.580;2023-04-24T03:44:26;10.35;;;5.72;;
45236;SDS011;30973;51.442;3.580;2023-04-24T03:46:53;12.55;;;5.95;;
45236;SDS011;30973;51.442;3.580;2023-04-24T03:49:22;14.13;;;5.65;;
45236;SDS011;30973;51.442;3.580;2023-04-24T03:51:49;17.45;;;5.95;;
45236;SDS011;30973;51.442;3.580;2023-04-24T03:54:21;17.35;;;5.70;;
45236;SDS011;30973;51.442;3.580;2023-04-24T03:56:49;12.15;;;5.20;;
45236;SDS011;30973;51.442;3.580;2023-04-24T03:59:17;13.88;;;6.28;;
45236;SDS011;30973;51.442;3.580;2023-04-24T04:01:48;14.50;;;6.28;;
45236;SDS011;30973;51.442;3.580;2023-04-24T04:04:16;12.73;;;5.15;;
45236;SDS011;30973;51.442;3.580;2023-04-24T04:06:44;10.52;;;5.32;;
45236;SDS011;30973;51.442;3.580;2023-04-24T04:09:11;14.85;;;6.18;;
45236;SDS011;30973;51.442;3.580;2023-04-24T04:11:37;11.98;;;5.80;;
45236;SDS011;30973;51.442;3.580;2023-04-24T04:14:04;11.35;;;5.55;;
45236;SDS011;30973;51.442;3.580;2023-04-24T04:16:33;14.85;;;6.35;;
45236;SDS011;30973;51.442;3.580;2023-04-24T04:19:02;12.10;;;5.70;;
45236;SDS011;30973;51.442;3.580;2023-04-24T04:21:29;13.85;;;5.60;;
45236;SDS011;30973;51.442;3.580;2023-04-24T04:24:11;12.52;;;6.25;;
45236;SDS011;30973;51.442;3.580;2023-04-24T04:26:42;13.07;;;6.60;;
45236;SDS011;30973;51.442;3.580;2023-04-24T04:29:20;11.32;;;6.00;;
45236;SDS011;30973;51.442;3.580;2023-04-24T04:31:49;14.50;;;6.82;;
45236;SDS011;30973;51.442;3.580;2023-04-24T04:34:15;13.15;;;6.40;;
45236;SDS011;30973;51.442;3.580;2023-04-24T04:36:43;12.93;;;6.90;;
45236;SDS011;30973;51.442;3.580;2023-04-24T04:39:30;14.75;;;6.95;;
45236;SDS011;30973;51.442;3.580;2023-04-24T04:42:06;17.58;;;7.68;;
45236;SDS011;30973;51.442;3.580;2023-04-24T04:44:39;15.55;;;6.97;;
45236;SDS011;30973;51.442;3.580;2023-04-24T04:47:09;13.00;;;6.32;;
45236;SDS011;30973;51.442;3.580;2023-04-24T04:49:37;11.85;;;6.13;;
45236;SDS011;30973;51.442;3.580;2023-04-24T04:52:09;14.80;;;5.78;;
45236;SDS011;30973;51.442;3.580;2023-04-24T04:54:36;15.88;;;6.63;;
45236;SDS011;30973;51.442;3.580;2023-04-24T04:57:03;15.52;;;5.88;;
45236;SDS011;30973;51.442;3.580;2023-04-24T04:59:30;16.77;;;6.28;;
45236;SDS011;30973;51.442;3.580;2023-04-24T05:02:03;10.40;;;5.95;;
45236;SDS011;30973;51.442;3.580;2023-04-24T05:04:30;12.68;;;6.13;;
45236;SDS011;30973;51.442;3.580;2023-04-24T05:06:57;14.85;;;6.97;;
45236;SDS011;30973;51.442;3.580;2023-04-24T05:09:27;13.32;;;6.20;;
45236;SDS011;30973;51.442;3.580;2023-04-24T05:12:00;14.07;;;5.68;;
45236;SDS011;30973;51.442;3.580;2023-04-24T05:14:33;13.80;;;5.00;;
45236;SDS011;30973;51.442;3.580;2023-04-24T05:16:59;8.80;;;4.75;;
45236;SDS011;30973;51.442;3.580;2023-04-24T05:19:28;8.75;;;4.53;;
45236;SDS011;30973;51.442;3.580;2023-04-24T05:21:55;12.15;;;4.20;;
45236;SDS011;30973;51.442;3.580;2023-04-24T05:24:22;12.63;;;4.07;;
45236;SDS011;30973;51.442;3.580;2023-04-24T05:27:05;11.40;;;4.50;;
45236;SDS011;30973;51.442;3.580;2023-04-24T05:29:36;14.52;;;5.07;;
45236;SDS011;30973;51.442;3.580;2023-04-24T05:32:04;15.90;;;4.63;;
45236;SDS011;30973;51.442;3.580;2023-04-24T05:34:31;12.95;;;4.40;;
45236;SDS011;30973;51.442;3.580;2023-04-24T05:36:58;12.80;;;4.70;;
45236;SDS011;30973;51.442;3.580;2023-04-24T05:39:25;9.02;;;3.70;;
45236;SDS011;30973;51.442;3.580;2023-04-24T05:42:02;16.48;;;4.65;;
45236;SDS011;30973;51.442;3.580;2023-04-24T05:44:36;12.98;;;4.20;;
45236;SDS011;30973;51.442;3.580;2023-04-24T05:47:03;13.90;;;3.70;;
45236;SDS011;30973;51.442;3.580;2023-04-24T05:49:31;12.32;;;3.92;;
45236;SDS011;30973;51.442;3.580;2023-04-24T05:51:58;11.38;;;4.70;;
45236;SDS011;30973;51.442;3.580;2023-04-24T05:54:24;18.30;;;5.10;;
45236;SDS011;30973;51.442;3.580;2023-04-24T05:56:51;8.77;;;3.22;;
45236;SDS011;30973;51.442;3.580;2023-04-24T05:59:28;12.15;;;3.60;;
45236;SDS011;30973;51.442;3.580;2023-04-24T06:01:56;13.65;;;4.25;;
45236;SDS011;30973;51.442;3.580;2023-04-24T06:04:23;8.05;;;2.97;;
45236;SDS011;30973;51.442;3.580;2023-04-24T06:06:51;9.80;;;4.22;;
45236;SDS011;30973;51.442;3.580;2023-04-24T06:09:22;8.20;;;2.63;;
45236;SDS011;30973;51.442;3.580;2023-04-24T06:11:49;8.93;;;2.45;;
45236;SDS011;30973;51.442;3.580;2023-04-24T06:14:16;9.13;;;2.20;;
45236;SDS011;30973;51.442;3.580;2023-04-24T06:17:01;9.30;;;2.70;;
45236;SDS011;30973;51.442;3.580;2023-04-24T06:19:35;9.70;;;2.72;;
45236;SDS011;30973;51.442;3.580;2023-04-24T06:22:02;9.63;;;3.00;;
45236;SDS011;30973;51.442;3.580;2023-04-24T06:24:29;8.50;;;2.78;;
45236;SDS011;30973;51.442;3.580;2023-04-24T06:26:57;11.38;;;3.13;;
45236;SDS011;30973;51.442;3.580;2023-04-24T06:29:25;12.75;;;3.30;;
45236;SDS011;30973;51.442;3.580;2023-04-24T06:31:51;10.85;;;3.40;;
45236;SDS011;30973;51.442;3.580;2023-04-24T06:34:18;11.65;;;3.35;;
45236;SDS011;30973;51.442;3.580;2023-04-24T06:36:46;14.57;;;3.53;;
45236;SDS011;30973;51.442;3.580;2023-04-24T06:39:12;14.82;;;3.95;;
45236;SDS011;30973;51.442;3.580;2023-04-24T06:41:39;12.07;;;2.90;;
45236;SDS011;30973;51.442;3.580;2023-04-24T06:44:08;16.60;;;3.75;;
45236;SDS011;30973;51.442;3.580;2023-04-24T06:46:35;14.68;;;3.65;;
45236;SDS011;30973;51.442;3.580;2023-04-24T06:49:01;9.27;;;3.13;;
45236;SDS011;30973;51.442;3.580;2023-04-24T06:51:29;10.93;;;2.90;;
45236;SDS011;30973;51.442;3.580;2023-04-24T06:53:55;11.32;;;3.35;;
45236;SDS011;30973;51.442;3.580;2023-04-24T06:56:27;12.50;;;3.03;;
45236;SDS011;30973;51.442;3.580;2023-04-24T06:58:55;13.07;;;3.47;;
45236;SDS011;30973;51.442;3.580;2023-04-24T07:01:22;12.80;;;3.72;;
45236;SDS011;30973;51.442;3.580;2023-04-24T07:03:49;9.00;;;3.17;;
45236;SDS011;30973;51.442;3.580;2023-04-24T07:06:16;11.38;;;2.83;;
45236;SDS011;30973;51.442;3.580;2023-04-24T07:08:44;11.82;;;2.80;;
45236;SDS011;30973;51.442;3.580;2023-04-24T07:11:11;15.82;;;2.95;;
45236;SDS011;30973;51.442;3.580;2023-04-24T07:13:38;14.90;;;3.35;;
45236;SDS011;30973;51.442;3.580;2023-04-24T07:16:08;11.23;;;3.40;;
45236;SDS011;30973;51.442;3.580;2023-04-24T07:18:35;13.30;;;3.42;;
45236;SDS011;30973;51.442;3.580;2023-04-24T07:21:02;16.80;;;3.45;;
45236;SDS011;30973;51.442;3.580;2023-04-24T07:23:29;11.95;;;3.15;;
45236;SDS011;30973;51.442;3.580;2023-04-24T07:25:56;14.57;;;2.97;;
45236;SDS011;30973;51.442;3.580;2023-04-24T07:28:24;12.25;;;3.85;;
45236;SDS011;30973;51.442;3.580;2023-04-24T07:30:51;10.75;;;2.60;;
45236;SDS011;30973;51.442;3.580;2023-04-24T07:33:20;10.82;;;2.40;;
45236;SDS011;30973;51.442;3.580;2023-04-24T07:35:47;8.13;;;2.47;;
45236;SDS011;30973;51.442;3.580;2023-04-24T07:38:14;7.47;;;2.00;;
45236;SDS011;30973;51.442;3.580;2023-04-24T07:40:40;10.13;;;2.63;;
45236;SDS011;30973;51.442;3.580;2023-04-24T07:43:08;12.38;;;2.50;;
45236;SDS011;30973;51.442;3.580;2023-04-24T07:45:34;10.20;;;2.35;;
45236;SDS011;30973;51.442;3.580;2023-04-24T07:48:03;13.35;;;2.70;;
45236;SDS011;30973;51.442;3.580;2023-04-24T07:50:31;9.77;;;2.50;;
45236;SDS011;30973;51.442;3.580;2023-04-24T07:52:57;10.30;;;2.80;;
45236;SDS011;30973;51.442;3.580;2023-04-24T07:55:24;9.75;;;2.40;;
45236;SDS011;30973;51.442;3.580;2023-04-24T07:57:53;9.23;;;2.70;;
45236;SDS011;30973;51.442;3.580;2023-04-24T08:00:21;6.57;;;2.13;;
45236;SDS011;30973;51.442;3.580;2023-04-24T08:02:48;9.50;;;3.08;;
45236;SDS011;30973;51.442;3.580;2023-04-24T08:05:15;9.68;;;2.63;;
45236;SDS011;30973;51.442;3.580;2023-04-24T08:07:42;10.30;;;1.90;;
45236;SDS011;30973;51.442;3.580;2023-04-24T08:10:09;7.30;;;2.05;;
45236;SDS011;30973;51.442;3.580;2023-04-24T08:12:36;6.82;;;2.15;;
45236;SDS011;30973;51.442;3.580;2023-04-24T08:15:04;7.45;;;1.92;;
45236;SDS011;30973;51.442;3.580;2023-04-24T08:17:30;5.90;;;1.70;;
45236;SDS011;30973;51.442;3.580;2023-04-24T08:19:57;7.50;;;2.15;;
45236;SDS011;30973;51.442;3.580;2023-04-24T08:22:27;7.00;;;2.17;;
45236;SDS011;30973;51.442;3.580;2023-04-24T08:24:54;6.15;;;1.80;;
45236;SDS011;30973;51.442;3.580;2023-04-24T08:27:22;8.43;;;2.03;;
45236;SDS011;30973;51.442;3.580;2023-04-24T08:29:49;9.13;;;2.15;;
45236;SDS011;30973;51.442;3.580;2023-04-24T08:32:16;8.60;;;2.47;;
45236;SDS011;30973;51.442;3.580;2023-04-24T08:34:43;7.85;;;1.80;;
45236;SDS011;30973;51.442;3.580;2023-04-24T08:37:09;5.72;;;1.77;;
45236;SDS011;30973;51.442;3.580;2023-04-24T08:39:36;9.32;;;2.03;;
45236;SDS011;30973;51.442;3.580;2023-04-24T08:42:04;6.40;;;1.80;;
45236;SDS011;30973;51.442;3.580;2023-04-24T08:44:34;8.90;;;2.22;;
45236;SDS011;30973;51.442;3.580;2023-04-24T08:47:02;6.82;;;1.83;;
45236;SDS011;30973;51.442;3.580;2023-04-24T08:49:29;7.28;;;2.20;;
45236;SDS011;30973;51.442;3.580;2023-04-24T08:51:55;6.07;;;2.15;;
45236;SDS011;30973;51.442;3.580;2023-04-24T08:54:22;9.07;;;2.20;;
45236;SDS011;30973;51.442;3.580;2023-04-24T08:56:49;9.90;;;2.45;;
45236;SDS011;30973;51.442;3.580;2023-04-24T08:59:16;8.80;;;2.08;;
45236;SDS011;30973;51.442;3.580;2023-04-24T09:01:43;9.48;;;2.33;;
45236;SDS011;30973;51.442;3.580;2023-04-24T09:04:11;5.82;;;1.70;;
45236;SDS011;30973;51.442;3.580;2023-04-24T09:06:39;6.80;;;1.73;;
45236;SDS011;30973;51.442;3.580;2023-04-24T09:09:06;5.45;;;1.20;;
45236;SDS011;30973;51.442;3.580;2023-04-24T09:11:34;4.40;;;1.48;;
45236;SDS011;30973;51.442;3.580;2023-04-24T09:14:01;7.88;;;1.48;;
45236;SDS011;30973;51.442;3.580;2023-04-24T09:16:27;6.55;;;1.55;;
45236;SDS011;30973;51.442;3.580;2023-04-24T09:18:54;5.07;;;1.35;;
45236;SDS011;30973;51.442;3.580;2023-04-24T09:21:21;4.70;;;1.20;;
45236;SDS011;30973;51.442;3.580;2023-04-24T09:23:59;7.90;;;1.25;;
45236;SDS011;30973;51.442;3.580;2023-04-24T09:26:28;5.47;;;1.50;;
45236;SDS011;30973;51.442;3.580;2023-04-24T09:28:55;3.67;;;1.00;;
45236;SDS011;30973;51.442;3.580;2023-04-24T09:31:22;6.85;;;1.35;;
45236;SDS011;30973;51.442;3.580;2023-04-24T09:34:02;4.82;;;1.92;;
45236;SDS011;30973;51.442;3.580;2023-04-24T09:36:37;5.75;;;1.10;;
45236;SDS011;30973;51.442;3.580;2023-04-24T09:39:08;5.97;;;1.10;;
45236;SDS011;30973;51.442;3.580;2023-04-24T09:41:35;4.10;;;1.20;;
45236;SDS011;30973;51.442;3.580;2023-04-24T09:44:13;2.45;;;1.00;;
45236;SDS011;30973;51.442;3.580;2023-04-24T09:46:41;3.92;;;1.00;;
45236;SDS011;30973;51.442;3.580;2023-04-24T09:49:15;3.40;;;1.15;;
45236;SDS011;30973;51.442;3.580;2023-04-24T09:51:42;4.30;;;1.42;;
45236;SDS011;30973;51.442;3.580;2023-04-24T09:54:18;4.22;;;1.15;;
45236;SDS011;30973;51.442;3.580;2023-04-24T09:56:48;3.53;;;1.10;;
45236;SDS011;30973;51.442;3.580;2023-04-24T09:59:16;4.15;;;1.00;;
45236;SDS011;30973;51.442;3.580;2023-04-24T10:01:43;4.63;;;1.77;;
45236;SDS011;30973;51.442;3.580;2023-04-24T10:04:20;5.00;;;1.27;;
45236;SDS011;30973;51.442;3.580;2023-04-24T10:06:48;2.60;;;0.90;;
45236;SDS011;30973;51.442;3.580;2023-04-24T10:09:15;8.07;;;1.48;;
45236;SDS011;30973;51.442;3.580;2023-04-24T10:11:43;3.85;;;1.33;;
45236;SDS011;30973;51.442;3.580;2023-04-24T10:14:19;2.72;;;1.00;;
45236;SDS011;30973;51.442;3.580;2023-04-24T10:16:47;3.20;;;1.35;;
45236;SDS011;30973;51.442;3.580;2023-04-24T10:19:22;2.53;;;0.73;;
45236;SDS011;30973;51.442;3.580;2023-04-24T10:21:51;3.28;;;0.93;;
45236;SDS011;30973;51.442;3.580;2023-04-24T10:24:18;2.88;;;0.90;;
45236;SDS011;30973;51.442;3.580;2023-04-24T10:26:48;3.53;;;1.02;;
45236;SDS011;30973;51.442;3.580;2023-04-24T10:29:16;4.05;;;1.33;;
45236;SDS011;30973;51.442;3.580;2023-04-24T10:31:43;2.20;;;0.90;;
45236;SDS011;30973;51.442;3.580;2023-04-24T10:34:31;6.10;;;1.42;;
45236;SDS011;30973;51.442;3.580;2023-04-24T10:36:58;3.97;;;1.40;;
45236;SDS011;30973;51.442;3.580;2023-04-24T10:39:24;5.75;;;1.52;;
45236;SDS011;30973;51.442;3.580;2023-04-24T10:41:53;6.22;;;1.52;;
45236;SDS011;30973;51.442;3.580;2023-04-24T10:44:20;5.25;;;1.27;;
45236;SDS011;30973;51.442;3.580;2023-04-24T10:46:52;2.78;;;1.02;;
45236;SDS011;30973;51.442;3.580;2023-04-24T10:49:27;4.85;;;1.40;;
45236;SDS011;30973;51.442;3.580;2023-04-24T10:51:54;6.35;;;1.40;;
45236;SDS011;30973;51.442;3.580;2023-04-24T10:54:30;5.65;;;1.65;;
45236;SDS011;30973;51.442;3.580;2023-04-24T10:59:52;2.70;;;1.13;;
45236;SDS011;30973;51.442;3.580;2023-04-24T11:02:36;7.40;;;2.03;;
45236;SDS011;30973;51.442;3.580;2023-04-24T11:05:03;5.68;;;1.25;;
45236;SDS011;30973;51.442;3.580;2023-04-24T11:07:58;3.88;;;1.10;;
45236;SDS011;30973;51.442;3.580;2023-04-24T11:10:37;3.53;;;1.10;;
45236;SDS011;30973;51.442;3.580;2023-04-24T11:13:04;6.47;;;1.50;;
45236;SDS011;30973;51.442;3.580;2023-04-24T11:15:30;4.85;;;1.48;;
45236;SDS011;30973;51.442;3.580;2023-04-24T11:17:57;4.97;;;1.20;;
45236;SDS011;30973;51.442;3.580;2023-04-24T11:20:24;4.13;;;1.30;;
45236;SDS011;30973;51.442;3.580;2023-04-24T11:22:54;5.93;;;1.40;;
45236;SDS011;30973;51.442;3.580;2023-04-24T11:25:21;3.90;;;1.50;;
45236;SDS011;30973;51.442;3.580;2023-04-24T11:27:52;4.10;;;1.25;;
45236;SDS011;30973;51.442;3.580;2023-04-24T11:30:29;4.38;;;1.23;;
45236;SDS011;30973;51.442;3.580;2023-04-24T11:32:55;2.90;;;0.95;;
45236;SDS011;30973;51.442;3.580;2023-04-24T11:35:28;4.47;;;1.65;;
45236;SDS011;30973;51.442;3.580;2023-04-24T11:37:56;4.47;;;1.10;;
45236;SDS011;30973;51.442;3.580;2023-04-24T11:40:26;5.88;;;1.40;;
45236;SDS011;30973;51.442;3.580;2023-04-24T11:42:53;6.03;;;1.45;;
45236;SDS011;30973;51.442;3.580;2023-04-24T11:45:23;3.65;;;1.30;;
45236;SDS011;30973;51.442;3.580;2023-04-24T11:47:50;3.55;;;1.33;;
45236;SDS011;30973;51.442;3.580;2023-04-24T11:50:19;4.68;;;1.27;;
45236;SDS011;30973;51.442;3.580;2023-04-24T11:52:46;5.18;;;1.23;;
45236;SDS011;30973;51.442;3.580;2023-04-24T11:57:46;4.35;;;1.45;;
45236;SDS011;30973;51.442;3.580;2023-04-24T12:00:20;5.82;;;1.58;;
45236;SDS011;30973;51.442;3.580;2023-04-24T12:02:48;5.05;;;1.20;;
45236;SDS011;30973;51.442;3.580;2023-04-24T12:05:22;3.72;;;1.17;;
45236;SDS011;30973;51.442;3.580;2023-04-24T12:07:50;4.95;;;1.27;;
45236;SDS011;30973;51.442;3.580;2023-04-24T12:10:20;4.97;;;1.38;;
45236;SDS011;30973;51.442;3.580;2023-04-24T12:12:47;5.00;;;1.58;;
45236;SDS011;30973;51.442;3.580;2023-04-24T12:15:17;4.50;;;1.52;;
45236;SDS011;30973;51.442;3.580;2023-04-24T12:17:44;10.65;;;1.77;;
45236;SDS011;30973;51.442;3.580;2023-04-24T12:20:11;5.38;;;1.25;;
45236;SDS011;30973;51.442;3.580;2023-04-24T12:22:50;6.53;;;1.63;;
45236;SDS011;30973;51.442;3.580;2023-04-24T12:25:18;6.57;;;1.85;;
45236;SDS011;30973;51.442;3.580;2023-04-24T12:27:45;5.38;;;1.55;;
45236;SDS011;30973;51.442;3.580;2023-04-24T12:30:13;6.68;;;2.72;;
45236;SDS011;30973;51.442;3.580;2023-04-24T12:32:47;5.95;;;2.00;;
45236;SDS011;30973;51.442;3.580;2023-04-24T12:35:25;6.50;;;1.85;;
45236;SDS011;30973;51.442;3.580;2023-04-24T12:37:51;5.05;;;1.50;;
45236;SDS011;30973;51.442;3.580;2023-04-24T12:40:19;6.18;;;1.60;;
45236;SDS011;30973;51.442;3.580;2023-04-24T12:42:49;3.42;;;1.40;;
45236;SDS011;30973;51.442;3.580;2023-04-24T12:45:17;3.60;;;1.95;;
45236;SDS011;30973;51.442;3.580;2023-04-24T12:47:44;6.15;;;1.88;;
45236;SDS011;30973;51.442;3.580;2023-04-24T12:50:11;7.57;;;2.00;;
45236;SDS011;30973;51.442;3.580;2023-04-24T12:52:39;5.53;;;1.48;;
45236;SDS011;30973;51.442;3.580;2023-04-24T12:55:06;4.85;;;1.80;;
45236;SDS011;30973;51.442;3.580;2023-04-24T12:57:36;7.20;;;2.05;;
45236;SDS011;30973;51.442;3.580;2023-04-24T13:00:03;10.98;;;2.15;;
45236;SDS011;30973;51.442;3.580;2023-04-24T13:02:30;5.18;;;1.85;;
45236;SDS011;30973;51.442;3.580;2023-04-24T13:04:58;4.70;;;1.90;;
45236;SDS011;30973;51.442;3.580;2023-04-24T13:07:24;5.75;;;1.90;;
45236;SDS011;30973;51.442;3.580;2023-04-24T13:09:51;5.55;;;2.28;;
45236;SDS011;30973;51.442;3.580;2023-04-24T13:12:18;7.97;;;1.80;;
45236;SDS011;30973;51.442;3.580;2023-04-24T13:14:45;7.10;;;2.75;;
45236;SDS011;30973;51.442;3.580;2023-04-24T13:17:12;5.80;;;1.70;;
45236;SDS011;30973;51.442;3.580;2023-04-24T13:19:40;4.03;;;1.73;;
45236;SDS011;30973;51.442;3.580;2023-04-24T13:22:09;6.50;;;2.10;;
45236;SDS011;30973;51.442;3.580;2023-04-24T13:24:36;4.57;;;1.80;;
45236;SDS011;30973;51.442;3.580;2023-04-24T13:27:05;6.63;;;2.15;;
45236;SDS011;30973;51.442;3.580;2023-04-24T13:29:31;5.50;;;1.77;;
45236;SDS011;30973;51.442;3.580;2023-04-24T13:31:58;6.53;;;1.80;;
45236;SDS011;30973;51.442;3.580;2023-04-24T13:34:25;5.82;;;1.70;;
45236;SDS011;30973;51.442;3.580;2023-04-24T13:36:53;5.80;;;1.70;;
45236;SDS011;30973;51.442;3.580;2023-04-24T13:39:20;5.47;;;1.83;;
45236;SDS011;30973;51.442;3.580;2023-04-24T13:41:47;9.27;;;2.10;;
45236;SDS011;30973;51.442;3.580;2023-04-24T13:44:17;6.20;;;1.77;;
45236;SDS011;30973;51.442;3.580;2023-04-24T13:46:45;5.15;;;2.10;;
45236;SDS011;30973;51.442;3.580;2023-04-24T13:49:13;9.52;;;2.50;;
45236;SDS011;30973;51.442;3.580;2023-04-24T13:51:39;4.32;;;1.90;;
45236;SDS011;30973;51.442;3.580;2023-04-24T13:54:06;6.60;;;2.03;;
45236;SDS011;30973;51.442;3.580;2023-04-24T13:56:33;6.93;;;2.03;;
45236;SDS011;30973;51.442;3.580;2023-04-24T13:58:59;9.80;;;2.30;;
45236;SDS011;30973;51.442;3.580;2023-04-24T14:01:29;7.35;;;2.30;;
45236;SDS011;30973;51.442;3.580;2023-04-24T14:03:57;8.77;;;2.28;;
45236;SDS011;30973;51.442;3.580;2023-04-24T14:06:24;7.97;;;2.50;;
45236;SDS011;30973;51.442;3.580;2023-04-24T14:08:50;7.65;;;2.50;;
45236;SDS011;30973;51.442;3.580;2023-04-24T14:11:18;6.90;;;2.45;;
45236;SDS011;30973;51.442;3.580;2023-04-24T14:13:45;8.57;;;2.40;;
45236;SDS011;30973;51.442;3.580;2023-04-24T14:16:12;6.78;;;2.30;;
45236;SDS011;30973;51.442;3.580;2023-04-24T14:18:39;6.18;;;2.65;;
45236;SDS011;30973;51.442;3.580;2023-04-24T14:21:06;8.75;;;2.67;;
45236;SDS011;30973;51.442;3.580;2023-04-24T14:23:32;7.35;;;2.50;;
45236;SDS011;30973;51.442;3.580;2023-04-24T14:25:59;7.97;;;2.67;;
45236;SDS011;30973;51.442;3.580;2023-04-24T14:28:26;6.28;;;2.25;;
45236;SDS011;30973;51.442;3.580;2023-04-24T14:30:52;6.10;;;2.00;;
45236;SDS011;30973;51.442;3.580;2023-04-24T14:33:19;5.63;;;2.40;;
45236;SDS011;30973;51.442;3.580;2023-04-24T14:35:46;6.45;;;2.50;;
45236;SDS011;30973;51.442;3.580;2023-04-24T14:38:13;5.75;;;1.90;;
45236;SDS011;30973;51.442;3.580;2023-04-24T14:40:39;6.22;;;2.08;;
45236;SDS011;30973;51.442;3.580;2023-04-24T14:43:10;6.38;;;2.00;;
45236;SDS011;30973;51.442;3.580;2023-04-24T14:45:53;5.43;;;2.08;;
45236;SDS011;30973;51.442;3.580;2023-04-24T14:48:19;4.60;;;1.92;;
45236;SDS011;30973;51.442;3.580;2023-04-24T14:50:46;7.20;;;2.60;;
45236;SDS011;30973;51.442;3.580;2023-04-24T14:53:13;5.00;;;1.92;;
45236;SDS011;30973;51.442;3.580;2023-04-24T14:55:40;13.45;;;2.90;;